Time;durP1;ratioP1;P1;durP2;ratioP2;P2;SDS_P1;SDS_P2;PMS_P1;PMS_P2;Temp;Humidity;BMP_temperature;BMP_pressure;BME280_temperature;BME280_humidity;BME280_pressure;Samples;Min_cycle;Max_cycle;Signal;HPM_P1;HPM_P2
2024/02/24 00:01:14;;;;;;;1.20;1.03;;;6.90;99.90;;;;;;5028980;28;20487;-67
2024/02/24 00:03:39;;;;;;;1.80;1.20;;;7.00;99.90;;;;;;5030605;28;20463;-67
2024/02/24 00:06:05;;;;;;;1.30;0.90;;;7.00;99.90;;;;;;5031521;28;20667;-66
2024/02/24 00:08:30;;;;;;;2.00;1.23;;;7.00;99.90;;;;;;5030483;28;20210;-67
2024/02/24 00:10:56;;;;;;;1.37;0.97;;;7.00;99.90;;;;;;5032293;28;20271;-67
2024/02/24 00:13:22;;;;;;;1.40;1.10;;;7.00;99.90;;;;;;5033076;28;20223;-67
2024/02/24 00:15:47;;;;;;;1.37;1.07;;;7.00;99.90;;;;;;5032552;28;20181;-68
2024/02/24 00:18:13;;;;;;;1.50;1.30;;;7.00;99.90;;;;;;5033520;28;20192;-68
2024/02/24 00:20:39;;;;;;;1.53;0.90;;;7.00;99.90;;;;;;5032626;28;20628;-66
2024/02/24 00:23:05;;;;;;;1.70;1.13;;;7.00;99.90;;;;;;5034296;28;20507;-68
2024/02/24 00:25:30;;;;;;;1.27;0.97;;;7.00;99.90;;;;;;5031721;28;20186;-68
2024/02/24 00:27:56;;;;;;;2.73;1.10;;;6.90;99.90;;;;;;5033058;28;20221;-66
2024/02/24 00:30:22;;;;;;;1.27;1.10;;;6.90;99.90;;;;;;5032733;28;20191;-67
2024/02/24 00:32:47;;;;;;;1.00;0.80;;;6.90;99.90;;;;;;5031740;28;20912;-69
2024/02/24 00:35:15;;;;;;;2.50;1.20;;;6.80;99.90;;;;;;5032564;28;20770;-66
2024/02/24 00:37:41;;;;;;;2.73;0.90;;;6.80;99.90;;;;;;5035332;28;20252;-67
2024/02/24 00:40:08;;;;;;;1.60;1.10;;;6.70;99.90;;;;;;5036304;28;20436;-67
2024/02/24 00:42:34;;;;;;;2.30;1.20;;;6.70;99.90;;;;;;5036616;28;20443;-66
2024/02/24 00:45:00;;;;;;;1.87;0.97;;;6.70;99.90;;;;;;5036220;28;20981;-65
2024/02/24 00:47:25;;;;;;;1.50;1.23;;;6.70;99.90;;;;;;5067175;28;20189;-69
2024/02/24 00:49:51;;;;;;;2.33;0.87;;;6.60;99.90;;;;;;5035779;28;20914;-68
2024/02/24 00:52:17;;;;;;;1.10;1.00;;;6.60;99.90;;;;;;5035733;28;20186;-66
2024/02/24 00:54:42;;;;;;;2.40;1.00;;;6.60;99.90;;;;;;5036751;28;20202;-69
2024/02/24 00:57:08;;;;;;;1.00;0.90;;;6.60;99.90;;;;;;5035912;28;20177;-68
2024/02/24 00:59:34;;;;;;;1.87;1.00;;;6.60;99.90;;;;;;5037029;28;20181;-68
2024/02/24 01:01:59;;;;;;;3.50;1.40;;;6.70;99.90;;;;;;5036524;28;20668;-66
2024/02/24 01:04:25;;;;;;;1.63;1.00;;;6.70;99.90;;;;;;5035975;28;20201;-68
2024/02/24 01:06:51;;;;;;;0.90;0.90;;;6.70;99.90;;;;;;5034562;28;20573;-68
2024/02/24 01:09:17;;;;;;;1.30;1.20;;;6.70;99.90;;;;;;5034701;28;20245;-66
2024/02/24 01:11:42;;;;;;;2.40;1.13;;;6.60;99.90;;;;;;5036982;28;20185;-67
2024/02/24 01:14:08;;;;;;;2.80;1.13;;;6.60;99.90;;;;;;5035700;28;20287;-67
2024/02/24 01:16:34;;;;;;;1.23;1.00;;;6.60;99.90;;;;;;5036086;28;20200;-67
2024/02/24 01:18:59;;;;;;;1.17;1.00;;;6.60;99.90;;;;;;5036551;28;20186;-70
2024/02/24 01:21:25;;;;;;;0.80;0.80;;;6.60;99.90;;;;;;5035385;28;20208;-69
2024/02/24 01:23:51;;;;;;;1.07;0.87;;;6.60;99.90;;;;;;5037173;28;20186;-67
2024/02/24 01:26:16;;;;;;;1.70;1.40;;;6.60;99.90;;;;;;5035040;28;20645;-66
2024/02/24 01:28:42;;;;;;;1.20;1.00;;;6.60;99.90;;;;;;5035250;28;20468;-69
2024/02/24 01:31:08;;;;;;;1.77;0.90;;;6.50;99.90;;;;;;5035532;28;20177;-66
2024/02/24 01:33:34;;;;;;;1.20;1.10;;;6.50;99.90;;;;;;5035928;28;20182;-69
2024/02/24 01:35:59;;;;;;;1.90;1.13;;;6.50;99.90;;;;;;5036052;28;20553;-67
2024/02/24 01:38:25;;;;;;;2.87;1.20;;;6.50;99.90;;;;;;5034777;28;20424;-67
2024/02/24 01:40:50;;;;;;;1.10;1.00;;;6.50;99.90;;;;;;5035456;28;20272;-68
2024/02/24 01:43:27;;;;;;;1.67;1.27;;;6.50;99.90;;;;;;5034430;28;20185;-69
2024/02/24 01:45:54;;;;;;;1.17;1.00;;;6.50;99.90;;;;;;5035210;28;20770;-68
2024/02/24 01:48:20;;;;;;;1.47;1.30;;;6.50;99.90;;;;;;5034557;28;20521;-69
2024/02/24 01:50:48;;;;;;;1.50;1.10;;;6.50;99.90;;;;;;5035180;28;21070;-67
2024/02/24 01:53:18;;;;;;;1.10;1.00;;;6.40;99.90;;;;;;5034649;28;20211;-67
2024/02/24 01:55:44;;;;;;;1.03;0.93;;;6.40;99.90;;;;;;5035484;28;20426;-65
2024/02/24 01:58:12;;;;;;;2.20;1.07;;;6.40;99.90;;;;;;5033534;28;20468;-66
2024/02/24 02:00:38;;;;;;;1.00;1.00;;;6.30;99.90;;;;;;5035564;28;20434;-66
2024/02/24 02:03:04;;;;;;;2.23;1.40;;;6.40;99.90;;;;;;5035071;28;20461;-66
2024/02/24 02:05:30;;;;;;;1.20;1.10;;;6.40;99.90;;;;;;5035150;28;20424;-66
2024/02/24 02:07:55;;;;;;;1.77;0.90;;;6.40;99.90;;;;;;5034967;28;20527;-66
2024/02/24 02:10:21;;;;;;;1.60;1.00;;;6.30;99.90;;;;;;5034863;28;20174;-67
2024/02/24 02:12:47;;;;;;;1.63;1.20;;;6.20;99.90;;;;;;5034283;28;20529;-69
2024/02/24 02:15:13;;;;;;;2.87;1.03;;;6.20;99.90;;;;;;5034893;28;20217;-68
2024/02/24 02:17:39;;;;;;;1.27;1.00;;;6.20;99.90;;;;;;5034955;28;20188;-69
2024/02/24 02:20:05;;;;;;;3.47;1.20;;;6.10;99.90;;;;;;5034653;28;20838;-66
2024/02/24 02:22:32;;;;;;;1.30;1.07;;;6.10;99.90;;;;;;5034992;28;20425;-67
2024/02/24 02:24:58;;;;;;;1.20;1.10;;;6.10;99.90;;;;;;5034301;28;20429;-69
2024/02/24 02:27:23;;;;;;;1.87;1.50;;;6.00;99.90;;;;;;5033887;28;20999;-67
2024/02/24 02:29:49;;;;;;;1.27;1.00;;;6.00;99.90;;;;;;5035952;28;20958;-66
2024/02/24 02:32:15;;;;;;;1.30;0.90;;;6.00;99.90;;;;;;5033796;28;20225;-68
2024/02/24 02:34:40;;;;;;;3.23;1.27;;;6.00;99.90;;;;;;5034722;28;20261;-69
2024/02/24 02:37:06;;;;;;;1.50;1.00;;;6.00;99.90;;;;;;5033938;28;20195;-67
2024/02/24 02:39:33;;;;;;;1.03;0.93;;;6.00;99.90;;;;;;5035508;28;20884;-67
2024/02/24 02:41:59;;;;;;;1.53;1.10;;;6.00;99.90;;;;;;5034184;28;20189;-68
2024/02/24 02:44:25;;;;;;;1.50;0.90;;;6.00;99.90;;;;;;5034028;28;20486;-69
2024/02/24 02:46:51;;;;;;;0.80;0.60;;;6.00;99.90;;;;;;5034804;28;20285;-67
2024/02/24 02:49:17;;;;;;;3.93;1.30;;;6.00;99.90;;;;;;5033565;28;20225;-68
2024/02/24 02:51:43;;;;;;;0.80;0.80;;;6.00;99.90;;;;;;5034220;28;20189;-66
2024/02/24 02:54:09;;;;;;;1.03;0.93;;;6.00;99.90;;;;;;5033695;28;21142;-66
2024/02/24 02:56:35;;;;;;;1.10;1.00;;;6.00;99.90;;;;;;5034195;28;20520;-68
2024/02/24 02:59:00;;;;;;;0.93;0.80;;;6.00;99.90;;;;;;5033947;28;20181;-68
2024/02/24 03:01:26;;;;;;;1.00;0.80;;;6.10;99.90;;;;;;5033791;28;20292;-66
2024/02/24 03:03:52;;;;;;;1.00;0.90;;;6.10;99.90;;;;;;5034135;28;20197;-68
2024/02/24 03:06:18;;;;;;;1.10;0.90;;;6.10;99.90;;;;;;5032730;28;20648;-67
2024/02/24 03:08:44;;;;;;;1.10;1.00;;;6.20;99.90;;;;;;5034371;28;20254;-67
2024/02/24 03:11:17;;;;;;;0.83;0.83;;;6.10;99.90;;;;;;5033626;28;20456;-67
2024/02/24 03:13:43;;;;;;;1.20;0.70;;;6.10;99.90;;;;;;5033978;28;20524;-69
2024/02/24 03:16:09;;;;;;;0.97;0.87;;;6.10;99.90;;;;;;5033563;28;20420;-69
2024/02/24 03:18:35;;;;;;;3.00;0.90;;;6.00;99.90;;;;;;5033637;28;20491;-66
2024/02/24 03:21:01;;;;;;;1.50;1.40;;;6.00;99.90;;;;;;5032769;28;20432;-68
2024/02/24 03:23:27;;;;;;;1.30;1.13;;;6.00;99.90;;;;;;5033745;28;20237;-67
2024/02/24 03:25:52;;;;;;;1.30;0.93;;;6.00;99.90;;;;;;5034971;28;20269;-68
2024/02/24 03:28:18;;;;;;;0.80;0.80;;;6.00;99.90;;;;;;5032980;28;20530;-68
2024/02/24 03:30:44;;;;;;;1.33;0.90;;;5.90;99.90;;;;;;5034620;28;20186;-67
2024/02/24 03:33:12;;;;;;;0.90;0.70;;;6.00;99.90;;;;;;5033587;28;20279;-69
2024/02/24 03:35:38;;;;;;;0.80;0.80;;;6.00;99.90;;;;;;5033089;28;20927;-67
2024/02/24 03:38:04;;;;;;;1.20;0.70;;;6.00;99.90;;;;;;5033325;28;20839;-67
2024/02/24 03:40:29;;;;;;;1.60;1.33;;;6.00;99.90;;;;;;5033799;28;20464;-66
2024/02/24 03:42:55;;;;;;;0.90;0.77;;;6.00;99.90;;;;;;5032090;28;20175;-68
2024/02/24 03:45:21;;;;;;;2.00;1.00;;;6.00;99.90;;;;;;5033604;28;20211;-67
2024/02/24 03:47:46;;;;;;;1.07;0.80;;;6.00;99.90;;;;;;5033254;28;20230;-66
2024/02/24 03:50:12;;;;;;;1.33;0.80;;;6.00;99.90;;;;;;5033879;28;20247;-70
2024/02/24 03:52:39;;;;;;;1.20;0.80;;;6.10;99.90;;;;;;5033498;28;20193;-69
2024/02/24 03:55:05;;;;;;;1.20;0.67;;;6.10;99.90;;;;;;5032649;28;20617;-68
2024/02/24 03:57:31;;;;;;;0.60;0.60;;;6.10;99.90;;;;;;5033657;28;20487;-68
2024/02/24 03:59:57;;;;;;;1.37;0.80;;;6.10;99.90;;;;;;5033113;28;21284;-67
2024/02/24 04:02:23;;;;;;;0.87;0.70;;;6.20;99.90;;;;;;5027211;28;20186;-67
2024/02/24 04:04:49;;;;;;;2.60;0.90;;;6.20;99.90;;;;;;5033632;28;20428;-67
2024/02/24 04:07:14;;;;;;;2.40;1.00;;;6.20;99.90;;;;;;5033548;28;20942;-69
2024/02/24 04:09:40;;;;;;;1.10;1.00;;;6.10;99.90;;;;;;5034684;28;20643;-67
2024/02/24 04:12:07;;;;;;;2.30;0.80;;;6.10;99.90;;;;;;5037007;28;20190;-68
2024/02/24 04:14:32;;;;;;;1.47;0.87;;;6.20;99.90;;;;;;5038030;28;20503;-68
2024/02/24 04:16:58;;;;;;;1.27;0.87;;;6.20;99.90;;;;;;5035318;28;20574;-68
2024/02/24 04:19:24;;;;;;;0.73;0.73;;;6.20;99.90;;;;;;5037493;28;20187;-68
2024/02/24 04:21:49;;;;;;;1.47;1.27;;;6.20;99.90;;;;;;5035250;28;20296;-68
2024/02/24 04:24:15;;;;;;;1.00;0.90;;;6.10;99.90;;;;;;5037057;28;20656;-69
2024/02/24 04:26:41;;;;;;;1.37;1.20;;;6.10;99.90;;;;;;5037538;28;20264;-69
2024/02/24 04:29:07;;;;;;;1.30;0.90;;;6.10;99.90;;;;;;5036504;28;20257;-66
2024/02/24 04:31:33;;;;;;;2.23;1.30;;;6.10;99.90;;;;;;5037678;28;20589;-66
2024/02/24 04:33:59;;;;;;;0.87;0.87;;;6.20;99.90;;;;;;5035966;28;20427;-68
2024/02/24 04:36:24;;;;;;;1.10;1.00;;;6.20;99.90;;;;;;5037305;28;20792;-68
2024/02/24 04:38:50;;;;;;;1.37;0.90;;;6.20;99.90;;;;;;5037519;28;20210;-66
2024/02/24 04:41:16;;;;;;;1.30;1.00;;;6.20;99.90;;;;;;5038044;28;20188;-68
2024/02/24 04:43:41;;;;;;;1.70;1.00;;;6.10;99.90;;;;;;5038145;28;20197;-66
2024/02/24 04:46:07;;;;;;;2.87;1.03;;;6.10;99.90;;;;;;5037169;28;20550;-66
2024/02/24 04:48:33;;;;;;;0.90;0.80;;;6.10;99.90;;;;;;5037745;28;20218;-68
2024/02/24 04:50:58;;;;;;;3.50;1.17;;;6.20;99.90;;;;;;5036408;28;20174;-67
2024/02/24 04:53:24;;;;;;;0.80;0.70;;;6.20;99.90;;;;;;5036706;28;20193;-67
2024/02/24 04:55:50;;;;;;;2.20;0.90;;;6.20;99.90;;;;;;5037493;28;20942;-67
2024/02/24 04:58:15;;;;;;;1.23;0.90;;;6.10;99.90;;;;;;5036850;28;20185;-67
2024/02/24 05:00:41;;;;;;;1.37;0.60;;;6.10;99.90;;;;;;5037723;28;20218;-69
2024/02/24 05:03:07;;;;;;;2.70;0.93;;;6.10;99.90;;;;;;5037246;28;20819;-68
2024/02/24 05:05:32;;;;;;;2.50;0.90;;;6.10;99.90;;;;;;5037366;28;20182;-68
2024/02/24 05:07:58;;;;;;;0.80;0.70;;;6.10;99.90;;;;;;5068971;28;20241;-68
2024/02/24 05:10:24;;;;;;;4.00;0.87;;;6.10;99.90;;;;;;5036959;28;20474;-68
2024/02/24 05:12:50;;;;;;;0.90;0.90;;;6.20;99.90;;;;;;5036848;28;20186;-68
2024/02/24 05:15:17;;;;;;;1.13;0.90;;;6.30;99.90;;;;;;5037548;28;20192;-66
2024/02/24 05:17:43;;;;;;;1.00;0.80;;;6.20;99.90;;;;;;5037060;28;20236;-68
2024/02/24 05:20:11;;;;;;;2.17;1.00;;;6.20;99.90;;;;;;5035681;28;20504;-69
2024/02/24 05:22:37;;;;;;;0.93;0.70;;;6.30;99.90;;;;;;5036812;28;20444;-68
2024/02/24 05:25:03;;;;;;;1.23;0.80;;;6.30;99.90;;;;;;5036193;28;20432;-66
2024/02/24 05:27:30;;;;;;;1.00;0.90;;;6.30;99.90;;;;;;5036811;28;20182;-67
2024/02/24 05:29:56;;;;;;;1.50;1.03;;;6.30;99.90;;;;;;5036133;28;21168;-67
2024/02/24 05:32:21;;;;;;;1.20;0.97;;;6.30;99.90;;;;;;5037153;28;20439;-67
2024/02/24 05:34:47;;;;;;;1.00;0.80;;;6.40;99.90;;;;;;5036565;28;20192;-69
2024/02/24 05:37:13;;;;;;;1.57;0.70;;;6.40;99.90;;;;;;5036568;28;20261;-69
2024/02/24 05:39:38;;;;;;;0.90;0.70;;;6.30;99.90;;;;;;5036187;28;20190;-68
2024/02/24 05:42:05;;;;;;;0.73;0.70;;;6.30;99.90;;;;;;5034815;28;20271;-67
2024/02/24 05:44:31;;;;;;;1.07;0.70;;;6.30;99.90;;;;;;5035847;28;20260;-69
2024/02/24 05:46:57;;;;;;;1.10;0.70;;;6.30;99.90;;;;;;5035751;28;20515;-69
2024/02/24 05:49:23;;;;;;;1.83;0.80;;;6.30;99.90;;;;;;5036404;28;20568;-68
2024/02/24 05:51:49;;;;;;;1.27;0.90;;;6.30;99.90;;;;;;5036749;28;20443;-67
2024/02/24 05:54:14;;;;;;;0.80;0.50;;;6.40;99.90;;;;;;5034925;28;20344;-66
2024/02/24 05:56:41;;;;;;;1.13;0.97;;;6.30;99.90;;;;;;5036652;28;20178;-68
2024/02/24 05:59:07;;;;;;;3.73;0.80;;;6.40;99.90;;;;;;5035755;28;20186;-67
2024/02/24 06:01:33;;;;;;;2.83;0.60;;;6.40;99.90;;;;;;5035895;28;20940;-69
2024/02/24 06:03:58;;;;;;;0.60;0.60;;;6.40;99.90;;;;;;5035896;28;20461;-68
2024/02/24 06:06:24;;;;;;;1.63;0.70;;;6.40;99.90;;;;;;5035776;28;20193;-67
2024/02/24 06:08:50;;;;;;;0.80;0.70;;;6.40;99.90;;;;;;5035087;28;20300;-69
2024/02/24 06:11:15;;;;;;;0.97;0.77;;;6.30;99.90;;;;;;5036219;28;20185;-69
2024/02/24 06:13:41;;;;;;;1.80;0.97;;;6.30;99.90;;;;;;5035858;28;20198;-69
2024/02/24 06:16:07;;;;;;;1.10;0.97;;;6.30;99.90;;;;;;5035301;28;20186;-66
2024/02/24 06:18:33;;;;;;;1.37;0.80;;;6.40;99.90;;;;;;5035977;28;21458;-69
2024/02/24 06:20:58;;;;;;;0.80;0.80;;;6.40;99.90;;;;;;5035738;28;20437;-69
2024/02/24 06:23:24;;;;;;;1.00;0.93;;;6.50;99.90;;;;;;5035395;28;20182;-66
2024/02/24 06:25:50;;;;;;;1.20;1.10;;;6.50;99.90;;;;;;5034244;28;20216;-66
2024/02/24 06:28:16;;;;;;;1.00;0.90;;;6.40;99.90;;;;;;5035695;28;20784;-69
2024/02/24 06:30:41;;;;;;;1.97;1.10;;;6.40;99.90;;;;;;5035690;28;20236;-67
2024/02/24 06:33:08;;;;;;;1.30;1.20;;;6.40;99.90;;;;;;5034325;28;20196;-66
2024/02/24 06:35:34;;;;;;;1.40;1.03;;;6.40;99.90;;;;;;5034483;28;20174;-67
2024/02/24 06:37:59;;;;;;;3.27;1.17;;;6.30;99.90;;;;;;5066973;28;20859;-67
2024/02/24 06:40:25;;;;;;;1.73;1.23;;;6.30;99.90;;;;;;5034699;28;20503;-68
2024/02/24 06:42:51;;;;;;;1.30;1.00;;;6.30;99.90;;;;;;5031643;28;20190;-68
2024/02/24 06:45:17;;;;;;;1.40;1.00;;;6.40;99.90;;;;;;5035066;28;20455;-66
2024/02/24 06:47:43;;;;;;;1.57;1.17;;;6.40;99.90;;;;;;5034786;28;20499;-68
2024/02/24 06:50:08;;;;;;;1.33;1.07;;;6.40;99.90;;;;;;5035299;28;21167;-67
2024/02/24 06:52:34;;;;;;;0.90;0.90;;;6.40;99.90;;;;;;5035345;28;20244;-66
2024/02/24 06:55:00;;;;;;;0.77;0.77;;;6.40;99.90;;;;;;5033526;28;20185;-68
2024/02/24 06:57:26;;;;;;;1.17;1.07;;;6.40;99.90;;;;;;5034591;28;20575;-66
2024/02/24 06:59:52;;;;;;;0.80;0.80;;;6.40;99.90;;;;;;5033048;28;20720;-66
2024/02/24 07:02:18;;;;;;;2.37;1.20;;;6.40;99.90;;;;;;5034532;28;20519;-67
2024/02/24 07:04:44;;;;;;;1.60;0.90;;;6.50;99.90;;;;;;5034281;28;20804;-68
2024/02/24 07:07:10;;;;;;;1.17;1.07;;;6.50;99.90;;;;;;5033452;28;20186;-68
2024/02/24 07:09:35;;;;;;;1.33;1.10;;;6.50;99.90;;;;;;5031105;28;20467;-69
2024/02/24 07:12:02;;;;;;;1.37;1.20;;;6.40;99.90;;;;;;5033495;28;20182;-69
2024/02/24 07:14:27;;;;;;;1.53;1.40;;;6.50;99.90;;;;;;5034526;28;20276;-69
2024/02/24 07:16:53;;;;;;;1.70;1.13;;;6.50;99.90;;;;;;5033406;28;20508;-67
2024/02/24 07:19:19;;;;;;;1.30;1.10;;;6.50;99.90;;;;;;5034912;28;20216;-67
2024/02/24 07:21:44;;;;;;;1.70;1.20;;;6.50;99.90;;;;;;5033460;28;20595;-68
2024/02/24 07:24:10;;;;;;;1.40;1.13;;;6.50;99.90;;;;;;5034151;28;20182;-65
2024/02/24 07:26:45;;;;;;;1.10;1.00;;;6.50;99.90;;;;;;5034082;28;20611;-66
2024/02/24 07:29:11;;;;;;;2.10;1.23;;;6.60;99.90;;;;;;5033419;28;20202;-69
2024/02/24 07:31:37;;;;;;;1.57;1.20;;;6.50;99.90;;;;;;5034597;28;21225;-68
2024/02/24 07:34:03;;;;;;;1.67;1.10;;;6.50;99.90;;;;;;5033271;28;20190;-67
2024/02/24 07:36:30;;;;;;;1.67;1.20;;;6.60;99.90;;;;;;5033694;28;20935;-69
2024/02/24 07:38:58;;;;;;;3.00;1.40;;;6.60;99.90;;;;;;5032692;28;20431;-66
2024/02/24 07:41:24;;;;;;;1.90;1.20;;;6.60;99.90;;;;;;5034096;28;20521;-67
2024/02/24 07:43:50;;;;;;;1.13;1.03;;;6.50;99.90;;;;;;5033816;28;21129;-68
2024/02/24 07:46:28;;;;;;;1.37;1.27;;;6.50;99.90;;;;;;5033498;28;20178;-67
2024/02/24 07:48:58;;;;;;;1.57;1.37;;;6.60;99.90;;;;;;5032860;28;20567;-68
2024/02/24 07:51:24;;;;;;;1.20;1.03;;;6.50;99.90;;;;;;5033747;28;20455;-66
2024/02/24 07:53:50;;;;;;;1.20;1.10;;;6.50;99.90;;;;;;5032407;28;20439;-68
2024/02/24 07:56:16;;;;;;;1.20;1.03;;;6.50;99.90;;;;;;5032875;28;20421;-68
2024/02/24 07:58:42;;;;;;;1.60;1.30;;;6.60;99.90;;;;;;5033464;28;20186;-69
2024/02/24 08:01:08;;;;;;;2.27;1.30;;;6.60;99.90;;;;;;5033768;28;20210;-68
2024/02/24 08:03:34;;;;;;;1.80;1.50;;;6.60;99.90;;;;;;5032687;28;20473;-68
2024/02/24 08:05:59;;;;;;;1.30;1.20;;;6.60;99.90;;;;;;5033529;28;20200;-67
2024/02/24 08:08:25;;;;;;;3.50;1.93;;;6.70;99.90;;;;;;5033737;28;20214;-67
2024/02/24 08:10:51;;;;;;;1.87;1.07;;;6.70;99.90;;;;;;5025535;28;20301;-68
2024/02/24 08:13:17;;;;;;;1.53;1.43;;;6.70;99.90;;;;;;5033093;28;20421;-66
2024/02/24 08:15:43;;;;;;;2.03;1.23;;;6.80;99.90;;;;;;5032569;28;20194;-69
2024/02/24 08:18:09;;;;;;;1.70;1.40;;;6.80;99.90;;;;;;5031406;28;20212;-68
2024/02/24 08:20:34;;;;;;;1.43;1.20;;;6.80;99.90;;;;;;5030575;28;20193;-66
2024/02/24 08:23:00;;;;;;;1.43;1.33;;;6.80;99.90;;;;;;5031643;28;20456;-69
2024/02/24 08:25:25;;;;;;;2.03;1.20;;;6.80;99.90;;;;;;5031970;28;20263;-68
2024/02/24 08:27:51;;;;;;;2.30;1.40;;;6.80;99.90;;;;;;5030476;28;20261;-69
2024/02/24 08:30:18;;;;;;;2.37;1.47;;;6.80;99.90;;;;;;5030705;28;20190;-67
2024/02/24 08:32:44;;;;;;;2.20;1.27;;;6.80;99.90;;;;;;5027959;28;21232;-68
2024/02/24 08:35:10;;;;;;;2.43;1.40;;;6.80;99.90;;;;;;5030477;28;20481;-66
2024/02/24 08:37:36;;;;;;;1.80;1.30;;;6.80;99.90;;;;;;5030224;28;20217;-66
2024/02/24 08:40:01;;;;;;;1.17;0.90;;;6.70;99.90;;;;;;5029013;28;20530;-66
2024/02/24 08:42:27;;;;;;;3.07;1.67;;;6.80;99.90;;;;;;5029043;28;20191;-68
2024/02/24 08:44:52;;;;;;;2.23;1.10;;;6.80;99.90;;;;;;5029384;28;20969;-67
2024/02/24 08:47:18;;;;;;;3.80;1.60;;;6.80;99.90;;;;;;5030792;28;20205;-69
2024/02/24 08:49:44;;;;;;;1.20;1.00;;;6.80;99.90;;;;;;5031177;28;20347;-66
2024/02/24 08:52:09;;;;;;;2.30;1.20;;;6.80;99.90;;;;;;5029038;28;20745;-68
2024/02/24 08:54:35;;;;;;;2.50;1.20;;;6.80;99.90;;;;;;5027656;28;20193;-67
2024/02/24 08:57:01;;;;;;;1.80;0.90;;;6.80;99.90;;;;;;5031703;28;20190;-68
2024/02/24 08:59:26;;;;;;;1.17;1.07;;;6.80;99.90;;;;;;5031913;28;20190;-67
2024/02/24 09:01:55;;;;;;;2.30;1.13;;;6.70;99.90;;;;;;5031812;28;20190;-68
2024/02/24 09:04:21;;;;;;;1.07;0.90;;;6.60;99.90;;;;;;5036725;28;20801;-67
2024/02/24 09:06:47;;;;;;;2.20;0.70;;;6.60;99.90;;;;;;5034749;28;20464;-68
2024/02/24 09:09:14;;;;;;;1.00;0.83;;;6.50;99.90;;;;;;5034869;28;20259;-67
2024/02/24 09:11:41;;;;;;;2.80;1.03;;;6.50;99.90;;;;;;5032790;28;20190;-68
2024/02/24 09:14:07;;;;;;;1.97;0.90;;;6.50;99.90;;;;;;5034604;28;20431;-67
2024/02/24 09:16:32;;;;;;;1.40;1.10;;;6.60;99.90;;;;;;5035429;28;20433;-67
2024/02/24 09:18:58;;;;;;;1.73;1.03;;;6.60;99.90;;;;;;5035944;28;20246;-68
2024/02/24 09:21:24;;;;;;;0.80;0.80;;;6.60;99.90;;;;;;5034732;28;20277;-69
2024/02/24 09:23:49;;;;;;;0.90;0.60;;;6.70;99.90;;;;;;5031727;28;20328;-66
2024/02/24 09:26:16;;;;;;;1.27;0.80;;;6.60;99.90;;;;;;5028727;28;20205;-67
2024/02/24 09:28:42;;;;;;;0.60;0.60;;;6.50;99.90;;;;;;5034031;28;20316;-68
2024/02/24 09:31:09;;;;;;;1.63;0.97;;;6.50;99.90;;;;;;5035212;28;21244;-67
2024/02/24 09:33:35;;;;;;;1.20;0.80;;;6.50;99.90;;;;;;5034963;28;20424;-69
2024/02/24 09:36:01;;;;;;;1.83;0.90;;;6.50;99.90;;;;;;5035843;28;20442;-67
2024/02/24 09:38:27;;;;;;;1.20;1.10;;;6.50;99.90;;;;;;5034839;28;20458;-68
2024/02/24 09:40:52;;;;;;;1.10;1.00;;;6.50;99.90;;;;;;5035588;28;20813;-66
2024/02/24 09:43:18;;;;;;;1.40;0.90;;;6.50;99.90;;;;;;5035906;28;20182;-66
2024/02/24 09:45:46;;;;;;;0.87;0.70;;;6.50;99.90;;;;;;5034231;28;20273;-67
2024/02/24 09:48:13;;;;;;;1.20;1.10;;;6.50;99.90;;;;;;5034701;28;20949;-67
2024/02/24 09:50:39;;;;;;;2.10;1.00;;;6.60;99.90;;;;;;5034375;28;20432;-68
2024/02/24 09:53:05;;;;;;;1.97;1.23;;;6.70;99.90;;;;;;5035845;28;20429;-70
2024/02/24 09:55:31;;;;;;;2.13;1.03;;;6.60;99.90;;;;;;5032085;28;20444;-69
2024/02/24 09:57:57;;;;;;;1.70;1.00;;;6.60;99.90;;;;;;5035389;28;20213;-67
2024/02/24 10:00:24;;;;;;;1.53;1.07;;;6.50;99.90;;;;;;5035143;28;20274;-68
2024/02/24 10:02:49;;;;;;;0.93;0.90;;;6.50;99.90;;;;;;5034683;28;20899;-65
2024/02/24 10:05:18;;;;;;;2.13;1.03;;;6.50;99.90;;;;;;5035387;28;20510;-70
2024/02/24 10:07:47;;;;;;;2.53;1.23;;;6.60;99.90;;;;;;5033535;28;20966;-72
2024/02/24 10:10:16;;;;;;;1.20;1.10;;;6.70;99.90;;;;;;5034967;28;20465;-70
2024/02/24 10:12:58;;;;;;;2.43;0.97;;;6.70;99.90;;;;;;5035198;28;20436;-69
2024/02/24 10:15:25;;;;;;;1.40;1.30;;;6.70;99.90;;;;;;5034660;28;20425;-68
2024/02/24 10:17:55;;;;;;;1.23;1.13;;;6.80;99.90;;;;;;5066520;28;20428;-68
2024/02/24 10:20:20;;;;;;;1.50;1.40;;;6.80;99.90;;;;;;5035210;28;20773;-69
2024/02/24 10:22:46;;;;;;;1.83;1.50;;;6.90;99.90;;;;;;5034431;28;20448;-69
2024/02/24 10:25:14;;;;;;;1.53;1.40;;;6.90;99.90;;;;;;5035218;28;21437;-71
2024/02/24 10:27:42;;;;;;;1.40;1.30;;;6.90;99.90;;;;;;5034067;28;20432;-67
2024/02/24 10:30:09;;;;;;;1.70;1.60;;;6.90;99.90;;;;;;5034155;28;20562;-66
2024/02/24 10:32:35;;;;;;;4.83;1.67;;;7.00;99.90;;;;;;5033365;28;20425;-72
2024/02/24 10:35:05;;;;;;;1.60;1.50;;;7.00;99.90;;;;;;5034831;28;21047;-73
2024/02/24 10:37:34;;;;;;;1.37;1.27;;;7.00;99.90;;;;;;5034258;28;20520;-70
2024/02/24 10:40:03;;;;;;;1.73;1.33;;;7.10;99.90;;;;;;5034683;28;20922;-68
2024/02/24 10:42:29;;;;;;;1.20;1.10;;;7.10;99.90;;;;;;5033716;28;21053;-69
2024/02/24 10:44:55;;;;;;;1.40;1.30;;;7.10;99.90;;;;;;5034819;28;20439;-70
2024/02/24 10:47:21;;;;;;;0.97;0.93;;;7.10;99.90;;;;;;5034292;28;20460;-68
2024/02/24 10:49:47;;;;;;;1.27;1.20;;;7.20;99.90;;;;;;5033782;28;20572;-68
2024/02/24 10:52:15;;;;;;;2.17;1.30;;;7.20;99.90;;;;;;5033926;28;20429;-67
2024/02/24 10:54:42;;;;;;;1.30;1.20;;;7.20;99.90;;;;;;5033944;28;20424;-72
2024/02/24 10:57:09;;;;;;;1.27;1.17;;;7.20;99.90;;;;;;5017684;28;20440;-71
2024/02/24 10:59:36;;;;;;;1.17;1.07;;;7.20;99.90;;;;;;5033558;28;20478;-71
2024/02/24 11:02:11;;;;;;;1.23;1.13;;;7.20;99.90;;;;;;5034435;28;20428;-68
2024/02/24 11:04:38;;;;;;;2.13;1.20;;;7.40;99.90;;;;;;5031263;28;20451;-70
2024/02/24 11:07:15;;;;;;;1.67;1.30;;;7.60;99.90;;;;;;5031151;28;20436;-71
2024/02/24 11:09:40;;;;;;;3.00;1.00;;;8.00;99.90;;;;;;5032184;28;20459;-71
2024/02/24 11:12:13;;;;;;;1.23;1.10;;;8.30;99.90;;;;;;5032334;28;20463;-68
2024/02/24 11:14:42;;;;;;;2.73;1.20;;;8.30;99.90;;;;;;5031652;28;20939;-67
2024/02/24 11:17:10;;;;;;;1.57;0.83;;;8.20;99.90;;;;;;5033292;28;20432;-68
2024/02/24 11:19:45;;;;;;;1.07;0.90;;;8.10;99.90;;;;;;5032703;28;20435;-69
2024/02/24 11:22:30;;;;;;;1.67;1.30;;;8.10;99.90;;;;;;5034226;28;20456;-67
2024/02/24 11:25:00;;;;;;;0.80;0.63;;;8.10;99.90;;;;;;5032353;28;20540;-70
2024/02/24 11:27:30;;;;;;;2.30;1.10;;;8.10;99.90;;;;;;5033055;28;20546;-71
2024/02/24 11:29:57;;;;;;;1.87;1.03;;;8.20;99.90;;;;;;5033726;28;20485;-68
2024/02/24 11:32:23;;;;;;;0.83;0.80;;;8.30;99.90;;;;;;5063362;28;20437;-72
2024/02/24 11:34:50;;;;;;;1.47;0.80;;;8.30;99.90;;;;;;5029728;28;20451;-72
2024/02/24 11:37:17;;;;;;;1.00;0.90;;;8.50;99.90;;;;;;5032382;28;20193;-71
2024/02/24 11:39:44;;;;;;;4.17;1.20;;;8.50;99.90;;;;;;5032390;28;21661;-67
2024/02/24 11:42:14;;;;;;;1.10;0.90;;;8.50;99.90;;;;;;5031470;28;20939;-72
2024/02/24 11:44:44;;;;;;;1.50;0.93;;;8.60;99.90;;;;;;5033167;28;20428;-66
2024/02/24 11:47:10;;;;;;;2.03;1.03;;;8.80;99.90;;;;;;5029989;28;20446;-68
2024/02/24 11:49:43;;;;;;;2.83;1.03;;;8.80;99.90;;;;;;5031832;28;20480;-69
2024/02/24 11:52:09;;;;;;;1.00;0.90;;;8.90;99.90;;;;;;5032759;28;20190;-68
2024/02/24 11:54:37;;;;;;;0.77;0.77;;;8.80;99.90;;;;;;5032909;28;20771;-70
2024/02/24 11:57:03;;;;;;;1.97;1.00;;;8.80;99.90;;;;;;5033982;28;20289;-71
2024/02/24 11:59:29;;;;;;;1.70;0.93;;;8.90;99.90;;;;;;5031941;28;20421;-70
2024/02/24 12:01:54;;;;;;;0.90;0.80;;;9.10;99.90;;;;;;5025790;28;20931;-69
2024/02/24 12:04:25;;;;;;;1.80;1.00;;;9.30;99.90;;;;;;5023627;28;20440;-72
2024/02/24 12:06:51;;;;;;;0.80;0.70;;;9.10;99.90;;;;;;5033052;28;20194;-68
2024/02/24 12:09:17;;;;;;;1.07;0.83;;;9.20;99.90;;;;;;5032507;28;20518;-71
2024/02/24 12:11:43;;;;;;;2.23;1.10;;;9.40;99.90;;;;;;5033450;28;21102;-71
2024/02/24 12:14:09;;;;;;;0.60;0.60;;;9.60;99.90;;;;;;5032660;28;20467;-69
2024/02/24 12:16:36;;;;;;;0.93;0.70;;;9.70;99.90;;;;;;5033121;28;21318;-69
2024/02/24 12:19:04;;;;;;;1.27;0.60;;;9.80;99.90;;;;;;5034095;28;20281;-69
2024/02/24 12:21:30;;;;;;;1.00;0.43;;;9.70;99.90;;;;;;5032811;28;20437;-69
2024/02/24 12:23:59;;;;;;;0.80;0.60;;;9.70;99.90;;;;;;5034277;28;20506;-68
2024/02/24 12:26:26;;;;;;;0.53;0.43;;;9.70;99.90;;;;;;5031355;28;20521;-71
2024/02/24 12:28:52;;;;;;;0.77;0.70;;;9.60;99.90;;;;;;5034341;28;20572;-68
2024/02/24 12:31:18;;;;;;;1.13;0.60;;;9.40;99.90;;;;;;5031487;28;20436;-70
2024/02/24 12:33:45;;;;;;;0.80;0.63;;;9.30;99.90;;;;;;5036262;28;20443;-69
2024/02/24 12:36:13;;;;;;;1.00;0.60;;;9.40;99.90;;;;;;5036231;28;20305;-71
2024/02/24 12:38:39;;;;;;;2.40;0.70;;;9.30;99.90;;;;;;5036530;28;20424;-69
2024/02/24 12:41:13;;;;;;;1.10;0.50;;;9.20;99.90;;;;;;5035648;28;20432;-69
2024/02/24 12:43:40;;;;;;;0.80;0.60;;;9.20;99.90;;;;;;5036760;28;20471;-68
2024/02/24 12:46:06;;;;;;;1.53;0.73;;;9.20;99.90;;;;;;5036582;28;20432;-71
2024/02/24 12:48:33;;;;;;;0.70;0.60;;;9.20;99.90;;;;;;5035773;28;20507;-67
2024/02/24 12:50:58;;;;;;;1.20;0.67;;;9.20;99.90;;;;;;5035184;28;20429;-70
2024/02/24 12:53:25;;;;;;;0.80;0.70;;;9.10;99.90;;;;;;5035769;28;20738;-72